Terminal Aerodrome Forecast
Issued by NWS Binghamton, NY

Home | Current Version | Previous Version | Text Only | Print | Product List | Glossary On
Versions: 1 2 3 4 5 6 7 8 9 10 11 12 13 14 15 16 17 18 19 20 21 22 23
000
FTUS41 KBGM 172300
TAFAVP
TAF
KAVP 172331Z 1800/1824 14006KT P6SM SCT250
     FM181400 22008KT P6SM SCT250
     FM182100 22010G16KT P6SM BKN120=

USA.gov is the U.S. government's official web portal to all federal, state and local government web resources and services.